Time;durP1;ratioP1;P1;durP2;ratioP2;P2;SDS_P1;SDS_P2;PMS_P1;PMS_P2;Temp;Humidity;BMP_temperature;BMP_pressure;BME280_temperature;BME280_humidity;BME280_pressure;Samples;Min_cycle;Max_cycle;Signal;HPM_P1;HPM_P2
2022/09/02 00:00:29;;;;;;;4.13;3.33;;;;;;;11.10;100.00;95983.44;1031023;28;20057;-70
2022/09/02 00:01:01;;;;;;;6.07;3.70;;;;;;;11.04;100.00;95974.75;1032498;28;20272;-69
2022/09/02 00:01:37;;;;;;;8.88;3.72;;;;;;;11.10;100.00;95978.19;1030614;28;20093;-71
2022/09/02 00:02:07;;;;;;;7.80;3.80;;;;;;;11.10;100.00;95975.56;1028262;28;20065;-69
2022/09/02 00:02:38;;;;;;;13.00;4.68;;;;;;;11.09;100.00;95977.38;1030952;28;20324;-70
2022/09/02 00:03:09;;;;;;;7.75;3.88;;;;;;;11.09;100.00;95977.38;1030702;28;20054;-71
2022/09/02 00:03:39;;;;;;;6.00;4.32;;;;;;;11.08;100.00;95978.44;1031394;28;20034;-69
2022/09/02 00:04:15;;;;;;;4.85;3.25;;;;;;;11.06;100.00;95975.25;1035062;28;20017;-69
2022/09/02 00:04:46;;;;;;;8.43;3.78;;;;;;;11.04;100.00;95974.75;1033239;28;20041;-71
2022/09/02 00:05:16;;;;;;;4.63;3.08;;;;;;;11.05;100.00;95970.28;1030128;28;20312;-69
2022/09/02 00:05:47;;;;;;;4.10;3.35;;;;;;;11.09;100.00;95971.34;1028640;28;20022;-69
2022/09/02 00:06:17;;;;;;;6.43;3.42;;;;;;;11.03;100.00;95969.75;1035756;28;20029;-69
2022/09/02 00:06:49;;;;;;;4.15;3.72;;;;;;;11.12;100.00;95980.53;1030901;28;20057;-70
2022/09/02 00:07:19;;;;;;;7.13;3.60;;;;;;;11.09;100.00;95976.59;1030689;28;20022;-70
2022/09/02 00:07:50;;;;;;;5.10;3.78;;;;;;;11.06;100.00;95975.25;1030856;28;20026;-70
2022/09/02 00:08:20;;;;;;;3.42;3.10;;;;;;;11.06;100.00;95971.84;1033405;28;20076;-70
2022/09/02 00:08:51;;;;;;;3.53;3.22;;;;;;;11.06;100.00;95977.09;1039134;28;20044;-69
2022/09/02 00:09:23;;;;;;;4.03;3.60;;;;;;;11.07;100.00;95970.81;1034143;28;20022;-70
2022/09/02 00:09:54;;;;;;;5.30;3.55;;;;;;;11.06;100.00;95972.63;1030647;28;20321;-69
2022/09/02 00:10:24;;;;;;;4.30;3.88;;;;;;;11.06;100.00;95977.88;1022154;28;20278;-70
2022/09/02 00:10:55;;;;;;;3.60;3.30;;;;;;;11.03;100.00;95973.19;1027562;28;20062;-69
2022/09/02 00:11:27;;;;;;;4.25;3.60;;;;;;;10.98;100.00;95960.03;1028939;28;20042;-68
2022/09/02 00:11:58;;;;;;;4.97;3.20;;;;;;;11.05;100.00;95971.06;1027949;28;20062;-72
2022/09/02 00:12:28;;;;;;;4.75;3.88;;;;;;;11.04;100.00;95979.22;1030922;28;20268;-71
2022/09/02 00:12:59;;;;;;;6.82;3.65;;;;;;;11.02;100.00;95971.56;1029469;28;20054;-71
2022/09/02 00:13:29;;;;;;;9.80;3.72;;;;;;;11.03;100.00;95972.38;1032555;28;20022;-69
2022/09/02 00:14:04;;;;;;;5.00;3.60;;;;;;;10.97;100.00;95962.91;1040541;28;20081;-69
2022/09/02 00:14:35;;;;;;;5.45;4.03;;;;;;;10.97;100.00;95963.72;1043247;28;20462;-70
2022/09/02 00:15:09;;;;;;;4.07;3.58;;;;;;;10.96;100.00;95962.09;1031930;28;20261;-69
2022/09/02 00:15:41;;;;;;;4.05;3.40;;;;;;;10.96;100.00;95964.72;1022808;29;20274;-70
2022/09/02 00:16:11;;;;;;;3.75;3.40;;;;;;;10.93;100.00;95965.28;1033838;28;20518;-69
2022/09/02 00:16:50;;;;;;;4.45;3.53;;;;;;;10.90;100.00;95964.97;1033805;28;20364;-69
2022/09/02 00:17:20;;;;;;;4.70;3.53;;;;;;;10.95;100.00;95963.16;1030938;28;20034;-71
2022/09/02 00:17:51;;;;;;;4.10;3.53;;;;;;;10.97;100.00;95965.53;1033051;28;20270;-69
2022/09/02 00:18:22;;;;;;;3.70;3.40;;;;;;;10.97;100.00;95963.72;1035991;28;20026;-69
2022/09/02 00:18:55;;;;;;;13.13;4.38;;;;;;;10.97;100.00;95963.72;1033348;28;20026;-69
2022/09/02 00:19:26;;;;;;;6.75;3.30;;;;;;;10.94;100.00;95953.72;1029160;28;20246;-71
2022/09/02 00:19:56;;;;;;;5.57;3.70;;;;;;;10.99;100.00;95961.59;1029107;28;20329;-70
2022/09/02 00:20:28;;;;;;;5.22;3.63;;;;;;;10.98;100.00;95960.03;1038842;28;20260;-69
2022/09/02 00:20:58;;;;;;;4.65;3.60;;;;;;;11.01;100.00;95962.13;1039648;28;20014;-70
2022/09/02 00:21:30;;;;;;;4.65;3.50;;;;;;;10.94;100.00;95956.34;1035479;28;20304;-70
2022/09/02 00:22:00;;;;;;;4.88;3.80;;;;;;;10.98;100.00;95961.88;1036202;28;20096;-69
2022/09/02 00:22:31;;;;;;;5.35;3.75;;;;;;;10.99;100.00;95961.59;1030838;28;20249;-70
2022/09/02 00:23:01;;;;;;;3.75;3.30;;;;;;;11.02;100.00;95963.69;1025292;28;20018;-70
2022/09/02 00:23:32;;;;;;;12.07;4.25;;;;;;;10.99;100.00;95961.59;1027019;28;20031;-70
2022/09/02 00:24:04;;;;;;;4.50;3.78;;;;;;;10.99;100.00;95969.47;1024881;28;20051;-69
2022/09/02 00:24:34;;;;;;;5.00;3.90;;;;;;;10.98;100.00;95962.66;1022769;29;20066;-72
2022/09/02 00:25:05;;;;;;;5.57;4.13;;;;;;;10.97;100.00;95958.47;1022801;28;20668;-69
2022/09/02 00:25:36;;;;;;;4.18;3.75;;;;;;;10.97;100.00;95957.66;1027659;28;20027;-70
2022/09/02 00:26:07;;;;;;;7.03;3.75;;;;;;;10.91;100.00;95954.22;1030764;28;20576;-70
2022/09/02 00:26:37;;;;;;;6.95;3.97;;;;;;;10.93;100.00;95952.16;1034747;28;20304;-70
2022/09/02 00:27:08;;;;;;;7.03;3.92;;;;;;;10.93;100.00;95967.91;1034796;28;20056;-70
2022/09/02 00:27:38;;;;;;;5.30;3.90;;;;;;;10.93;100.00;95957.41;1034873;28;20026;-69
2022/09/02 00:28:09;;;;;;;5.43;4.38;;;;;;;10.92;100.00;95955.81;1030746;28;20038;-71
2022/09/02 00:28:40;;;;;;;4.20;3.80;;;;;;;10.89;100.00;95956.31;1030665;28;20030;-70
2022/09/02 00:29:13;;;;;;;4.32;3.92;;;;;;;10.92;100.00;95961.06;1030273;28;20022;-70
2022/09/02 00:29:43;;;;;;;5.97;4.10;;;;;;;10.91;100.00;95959.47;1027209;28;20657;-70
2022/09/02 00:30:14;;;;;;;4.65;4.20;;;;;;;10.90;100.00;95963.16;1027039;28;20329;-69
2022/09/02 00:30:45;;;;;;;4.80;4.30;;;;;;;10.88;100.00;95954.75;1031248;28;20038;-70
2022/09/02 00:31:16;;;;;;;5.22;4.38;;;;;;;10.89;100.00;95951.06;1030810;28;20574;-69
2022/09/02 00:31:47;;;;;;;5.07;3.72;;;;;;;10.89;100.00;95960.78;1030967;28;20034;-70
2022/09/02 00:32:17;;;;;;;4.72;4.13;;;;;;;10.86;100.00;95956.84;1034728;28;20273;-70
2022/09/02 00:32:48;;;;;;;4.18;3.78;;;;;;;10.82;100.00;95945.28;1030480;28;20138;-70
2022/09/02 00:33:18;;;;;;;5.53;4.05;;;;;;;10.86;100.00;95956.84;1030763;28;20523;-70
2022/09/02 00:33:50;;;;;;;5.97;4.82;;;;;;;10.85;100.00;95957.88;1030867;28;20062;-70
2022/09/02 00:34:20;;;;;;;4.28;3.88;;;;;;;10.83;100.00;95957.34;1035141;28;20018;-70
2022/09/02 00:34:51;;;;;;;5.78;4.60;;;;;;;10.83;100.00;95957.34;1039453;28;20843;-71
2022/09/02 00:35:21;;;;;;;5.60;3.95;;;;;;;10.82;100.00;95955.78;1042796;28;20033;-69
2022/09/02 00:35:52;;;;;;;5.13;4.15;;;;;;;10.82;100.00;95955.78;1043112;28;20025;-70
2022/09/02 00:36:22;;;;;;;3.95;3.55;;;;;;;10.83;100.00;95962.59;1038970;28;20091;-71
2022/09/02 00:36:53;;;;;;;4.72;4.22;;;;;;;10.82;100.00;95955.78;1034754;28;20042;-69
2022/09/02 00:37:24;;;;;;;7.22;4.07;;;;;;;10.79;100.00;95954.44;1030656;28;20075;-70
2022/09/02 00:37:55;;;;;;;4.75;4.15;;;;;;;10.80;100.00;95953.44;1027079;28;20489;-70
2022/09/02 00:38:26;;;;;;;5.68;4.35;;;;;;;10.72;100.00;95940.78;1026673;28;20313;-70
2022/09/02 00:38:56;;;;;;;5.70;4.20;;;;;;;10.78;100.00;95960.75;1018736;29;20437;-71
2022/09/02 00:39:27;;;;;;;5.95;4.50;;;;;;;10.71;100.00;95944.47;1020471;28;20039;-70
2022/09/02 00:39:57;;;;;;;8.02;4.50;;;;;;;10.73;100.00;95952.88;1023091;28;20039;-70
2022/09/02 00:40:28;;;;;;;5.00;4.50;;;;;;;10.76;100.00;95956.81;1035157;28;20038;-71
2022/09/02 00:40:59;;;;;;;4.20;3.80;;;;;;;10.70;100.00;95948.16;1042725;28;20025;-69
2022/09/02 00:41:31;;;;;;;4.35;3.92;;;;;;;10.76;100.00;95951.56;1035093;28;20018;-70
2022/09/02 00:42:02;;;;;;;6.00;3.85;;;;;;;10.76;100.00;95946.31;1038686;28;20040;-70
2022/09/02 00:42:33;;;;;;;5.05;3.95;;;;;;;10.70;100.00;95944.72;1034804;28;20750;-69
2022/09/02 00:43:07;;;;;;;5.65;4.50;;;;;;;10.75;100.00;95949.97;1038740;28;20083;-71
2022/09/02 00:43:50;;;;;;;6.00;4.10;;;;;;;10.74;100.00;95949.19;1038984;28;20029;-70
2022/09/02 00:44:21;;;;;;;5.70;4.45;;;;;;;10.60;100.00;95932.38;1034708;28;20272;-69
2022/09/02 00:44:51;;;;;;;5.78;4.22;;;;;;;10.73;100.00;95952.88;1031380;28;20277;-70
2022/09/02 00:45:22;;;;;;;4.53;4.00;;;;;;;10.74;100.00;95958.91;1026573;28;20127;-70
2022/09/02 00:45:54;;;;;;;4.78;4.28;;;;;;;10.73;100.00;95952.06;1027051;28;20054;-70
2022/09/02 00:46:26;;;;;;;5.18;4.15;;;;;;;10.72;100.00;95950.50;1027029;28;20118;-70
2022/09/02 00:46:56;;;;;;;5.63;4.07;;;;;;;10.71;100.00;95949.72;1027772;28;20289;-69
2022/09/02 00:47:30;;;;;;;4.53;4.13;;;;;;;10.66;100.00;95943.66;1025164;28;21084;-70
2022/09/02 00:48:01;;;;;;;4.78;3.90;;;;;;;10.74;100.00;95951.03;1024110;28;20038;-69
2022/09/02 00:48:31;;;;;;;5.57;4.15;;;;;;;10.73;100.00;95952.06;1027513;28;20303;-70
2022/09/02 00:49:10;;;;;;;6.13;4.38;;;;;;;10.67;100.00;95953.13;1026800;28;20329;-71
2022/09/02 00:49:44;;;;;;;5.50;4.20;;;;;;;10.72;100.00;95951.28;1030464;28;20694;-70
2022/09/02 00:50:15;;;;;;;5.45;4.43;;;;;;;10.73;100.00;95954.69;1022951;29;20823;-70
2022/09/02 00:50:46;;;;;;;6.45;4.05;;;;;;;10.72;100.00;95951.28;1022755;29;20313;-71
2022/09/02 00:51:16;;;;;;;5.10;4.07;;;;;;;10.67;100.00;95942.63;1021710;28;20294;-71
2022/09/02 00:52:05;;;;;;;5.45;3.72;;;;;;;10.74;100.00;95948.41;1027107;28;20035;-70
2022/09/02 00:52:41;;;;;;;7.32;4.22;;;;;;;10.77;100.00;95959.19;1029369;28;20089;-69
2022/09/02 00:53:11;;;;;;;5.30;3.78;;;;;;;10.74;100.00;95954.44;1026579;28;20265;-70
2022/09/02 00:53:42;;;;;;;6.70;4.03;;;;;;;10.77;100.00;95953.16;1036284;28;20304;-71
2022/09/02 00:54:13;;;;;;;4.32;3.60;;;;;;;10.74;100.00;95953.66;1030988;28;20031;-69
2022/09/02 00:54:49;;;;;;;4.70;3.97;;;;;;;10.71;100.00;95956.81;1026848;28;20368;-70
2022/09/02 00:55:24;;;;;;;4.72;3.90;;;;;;;10.71;100.00;95957.59;1027622;28;20030;-69
2022/09/02 00:55:54;;;;;;;4.45;4.03;;;;;;;10.67;100.00;95947.88;1038914;28;20278;-70
2022/09/02 00:56:26;;;;;;;4.68;4.20;;;;;;;10.67;100.00;95942.63;1022572;29;20696;-68
2022/09/02 00:56:57;;;;;;;5.53;4.35;;;;;;;10.66;100.00;95941.03;1022926;29;20496;-69
2022/09/02 00:57:31;;;;;;;5.57;3.70;;;;;;;10.71;100.00;95948.94;1022722;29;20353;-71
2022/09/02 00:58:06;;;;;;;6.50;4.28;;;;;;;10.70;100.00;95955.22;1024473;28;20154;-69
2022/09/02 00:58:37;;;;;;;4.90;4.05;;;;;;;10.65;100.00;95949.94;1022797;29;20364;-69
2022/09/02 00:59:07;;;;;;;7.88;4.55;;;;;;;10.70;100.00;95952.59;1026154;28;20950;-70
2022/09/02 01:00:04;;;;;;;4.82;3.95;;;;;;;10.68;100.00;95944.97;1026513;28;20033;-71
2022/09/02 01:00:41;;;;;;;4.85;4.35;;;;;;;10.61;100.00;95934.72;1026267;28;20042;-69
2022/09/02 01:01:11;;;;;;;4.50;4.03;;;;;;;10.67;100.00;95953.13;1027746;28;20277;-70
2022/09/02 01:01:42;;;;;;;4.35;3.92;;;;;;;10.67;100.00;95953.13;1038628;28;20276;-70
2022/09/02 01:02:12;;;;;;;6.55;4.00;;;;;;;10.62;100.00;95935.50;1030779;28;20061;-70
2022/09/02 01:02:45;;;;;;;4.18;3.78;;;;;;;10.64;100.00;95943.13;1031723;28;20464;-69
2022/09/02 01:03:18;;;;;;;5.53;4.32;;;;;;;10.65;100.00;95950.72;1034764;28;20026;-69
2022/09/02 01:03:49;;;;;;;7.30;4.05;;;;;;;10.61;100.00;95942.59;1030574;28;21054;-70
2022/09/02 01:04:19;;;;;;;7.70;3.92;;;;;;;10.64;100.00;95937.88;1026679;28;20706;-70
2022/09/02 01:04:55;;;;;;;5.80;4.15;;;;;;;10.64;100.00;95949.16;1025024;28;20269;-69
2022/09/02 01:05:29;;;;;;;6.30;4.70;;;;;;;10.64;100.00;95948.38;1027519;28;20477;-69
2022/09/02 01:06:01;;;;;;;5.93;3.90;;;;;;;10.64;100.00;95948.38;1023726;28;20274;-69
2022/09/02 01:06:32;;;;;;;6.22;4.32;;;;;;;10.65;100.00;95949.94;1026666;28;20258;-69
2022/09/02 01:07:04;;;;;;;4.78;4.20;;;;;;;10.66;100.00;95946.28;1022654;29;20274;-69
2022/09/02 01:07:37;;;;;;;6.07;4.03;;;;;;;10.64;100.00;95949.16;1023376;28;20282;-69
2022/09/02 01:08:08;;;;;;;4.97;4.15;;;;;;;10.62;100.00;95951.25;1023953;28;20755;-70
2022/09/02 01:08:39;;;;;;;6.75;4.32;;;;;;;10.60;100.00;95946.28;1032160;28;20274;-70
2022/09/02 01:09:11;;;;;;;4.78;4.28;;;;;;;10.58;100.00;95945.72;1034703;28;20276;-70
2022/09/02 01:09:42;;;;;;;5.68;4.50;;;;;;;10.59;100.00;95947.28;1031129;28;20269;-69
2022/09/02 01:10:16;;;;;;;4.85;4.10;;;;;;;10.56;100.00;95944.41;1030497;28;20281;-70
2022/09/02 01:10:46;;;;;;;5.32;3.80;;;;;;;10.59;100.00;95944.66;1026769;28;20511;-70
2022/09/02 01:11:18;;;;;;;5.78;4.25;;;;;;;10.58;100.00;95947.56;1022734;29;20285;-69
2022/09/02 01:11:52;;;;;;;5.55;3.83;;;;;;;10.57;100.00;95954.66;1026787;28;20546;-70
2022/09/02 01:12:23;;;;;;;5.53;4.05;;;;;;;10.51;100.00;95941.78;1028219;28;20282;-70
2022/09/02 01:12:57;;;;;;;5.18;4.10;;;;;;;10.55;100.00;95943.63;1024057;28;20342;-70
2022/09/02 01:13:28;;;;;;;5.53;4.03;;;;;;;10.54;100.00;95949.91;1031796;28;20037;-69
2022/09/02 01:14:00;;;;;;;4.50;3.83;;;;;;;10.54;100.00;95943.88;1030648;28;20281;-70
2022/09/02 01:14:31;;;;;;;9.07;4.38;;;;;;;10.54;100.00;95947.28;1032329;28;20287;-70
2022/09/02 01:15:01;;;;;;;5.65;4.22;;;;;;;10.55;100.00;95948.06;1038719;28;20718;-70
2022/09/02 01:15:36;;;;;;;5.65;3.92;;;;;;;10.53;100.00;95948.34;1035002;28;20033;-69
2022/09/02 01:16:10;;;;;;;4.70;4.20;;;;;;;10.53;100.00;95948.34;1027375;28;20397;-69
2022/09/02 01:16:50;;;;;;;5.80;3.95;;;;;;;10.48;100.00;95940.44;1027306;28;20282;-73
2022/09/02 01:17:20;;;;;;;5.18;3.80;;;;;;;10.53;100.00;95948.34;1030843;28;21132;-70
2022/09/02 01:17:51;;;;;;;5.88;3.97;;;;;;;10.53;100.00;95950.97;1028187;28;20034;-68
2022/09/02 01:18:24;;;;;;;4.80;3.92;;;;;;;10.53;100.00;95948.34;1027101;28;20472;-69
2022/09/02 01:18:55;;;;;;;4.38;3.97;;;;;;;10.53;100.00;95947.53;1030709;28;20408;-69
2022/09/02 01:19:46;;;;;;;16.23;4.57;;;;;;;10.49;100.00;95939.38;1025963;28;20629;-69
2022/09/02 01:20:20;;;;;;;6.50;4.30;;;;;;;10.46;100.00;95932.06;1026106;28;20802;-70
2022/09/02 01:20:50;;;;;;;5.30;3.88;;;;;;;10.53;100.00;95943.09;1034592;28;20276;-69
2022/09/02 01:21:22;;;;;;;4.97;3.85;;;;;;;10.50;100.00;95938.38;1038180;28;20944;-69
2022/09/02 01:21:53;;;;;;;5.45;4.35;;;;;;;10.53;100.00;95947.53;1030012;28;20064;-68
2022/09/02 01:22:26;;;;;;;6.38;4.35;;;;;;;10.45;100.00;95935.72;1023487;28;20281;-69
2022/09/02 01:22:57;;;;;;;4.72;4.15;;;;;;;10.50;100.00;95942.81;1026796;28;20344;-68
2022/09/02 01:23:28;;;;;;;4.82;3.92;;;;;;;10.36;100.00;95919.69;1024432;28;20275;-69
2022/09/02 01:23:58;;;;;;;4.60;4.20;;;;;;;10.45;100.00;95932.28;1031181;28;20030;-71
2022/09/02 01:24:29;;;;;;;4.80;3.88;;;;;;;10.49;100.00;95944.63;1026982;28;20042;-69
2022/09/02 01:25:06;;;;;;;4.90;4.03;;;;;;;10.48;100.00;95948.31;1030559;28;20109;-69
2022/09/02 01:25:37;;;;;;;4.63;4.10;;;;;;;10.48;100.00;95944.91;1030735;28;20292;-69
2022/09/02 01:26:07;;;;;;;7.22;4.35;;;;;;;10.46;100.00;95947.78;1031771;28;20782;-70
2022/09/02 01:26:38;;;;;;;5.38;3.92;;;;;;;10.47;100.00;95946.75;1023447;28;20541;-70
2022/09/02 01:27:08;;;;;;;5.90;4.40;;;;;;;10.47;100.00;95948.59;1030286;28;20041;-69
2022/09/02 01:27:39;;;;;;;4.75;4.25;;;;;;;10.42;100.00;95936.22;1030510;28;20030;-71
2022/09/02 01:28:11;;;;;;;7.53;4.50;;;;;;;10.46;100.00;95946.97;1026996;28;20035;-70
2022/09/02 01:28:41;;;;;;;4.53;4.13;;;;;;;10.43;100.00;95937.00;1030010;28;20084;-70
2022/09/02 01:29:12;;;;;;;5.78;4.30;;;;;;;10.37;100.00;95933.59;1021984;29;20768;-70
2022/09/02 01:29:43;;;;;;;6.43;4.20;;;;;;;10.42;100.00;95946.72;1018750;29;20050;-68
2022/09/02 01:30:16;;;;;;;5.18;4.32;;;;;;;10.44;100.00;95949.88;1029748;28;20380;-71
2022/09/02 01:30:49;;;;;;;5.30;4.20;;;;;;;10.41;100.00;95947.75;1033671;28;20022;-70
2022/09/02 01:31:19;;;;;;;4.88;4.40;;;;;;;10.43;100.00;95948.31;1030640;28;20798;-70
2022/09/02 01:31:50;;;;;;;4.45;4.00;;;;;;;10.42;100.00;95941.47;1034496;28;20367;-69
2022/09/02 01:32:21;;;;;;;5.18;4.05;;;;;;;10.42;100.00;95946.72;1034944;28;20700;-70
2022/09/02 01:32:52;;;;;;;9.32;4.70;;;;;;;10.41;100.00;95944.34;1030674;28;20068;-71
2022/09/02 01:33:22;;;;;;;8.40;4.70;;;;;;;10.35;100.00;95930.41;1030795;28;20039;-69
2022/09/02 01:33:54;;;;;;;7.20;4.20;;;;;;;10.40;100.00;95943.56;1027255;28;20340;-69
2022/09/02 01:34:24;;;;;;;4.95;4.07;;;;;;;10.41;100.00;95937.28;1031197;28;20034;-70
2022/09/02 01:34:54;;;;;;;5.13;4.40;;;;;;;10.36;100.00;95935.41;1030673;28;20696;-70
2022/09/02 01:35:25;;;;;;;6.20;4.13;;;;;;;10.40;100.00;95938.31;1033711;28;20018;-70
2022/09/02 01:35:56;;;;;;;6.03;4.55;;;;;;;10.42;100.00;95940.69;1031590;28;20022;-70
2022/09/02 01:36:26;;;;;;;5.68;4.35;;;;;;;10.42;100.00;95938.84;1030887;28;20034;-69
2022/09/02 01:36:57;;;;;;;4.40;4.00;;;;;;;10.44;100.00;95941.22;1030819;28;20062;-69
2022/09/02 01:37:27;;;;;;;5.63;4.40;;;;;;;10.39;100.00;95931.47;1027652;28;20679;-71
2022/09/02 01:37:58;;;;;;;6.95;4.25;;;;;;;10.43;100.00;95937.00;1032306;28;20046;-69
2022/09/02 01:38:29;;;;;;;5.55;4.25;;;;;;;10.39;100.00;95931.47;1031994;28;20022;-70
2022/09/02 01:39:00;;;;;;;6.97;4.50;;;;;;;10.43;100.00;95932.56;1039856;28;20026;-71
2022/09/02 01:39:30;;;;;;;9.88;4.18;;;;;;;10.37;100.00;95928.34;1037035;28;20276;-70
2022/09/02 01:40:01;;;;;;;6.38;4.13;;;;;;;10.42;100.00;95938.06;1032086;28;20058;-69
2022/09/02 01:40:34;;;;;;;15.48;4.55;;;;;;;10.36;100.00;95931.97;1036176;28;20129;-70
2022/09/02 01:41:04;;;;;;;10.02;4.50;;;;;;;10.40;100.00;95943.56;1031712;28;20679;-70
2022/09/02 01:41:35;;;;;;;6.25;4.45;;;;;;;10.36;100.00;95940.66;1032793;28;20066;-69
2022/09/02 01:42:06;;;;;;;5.22;4.05;;;;;;;10.33;100.00;95935.16;1032152;28;20030;-69
2022/09/02 01:42:36;;;;;;;7.97;4.72;;;;;;;10.36;100.00;95938.03;1028024;28;20034;-69
2022/09/02 01:43:12;;;;;;;4.30;3.83;;;;;;;10.35;100.00;95946.94;1028025;28;20395;-70
2022/09/02 01:43:43;;;;;;;6.20;4.20;;;;;;;10.35;100.00;95940.91;1023411;28;20042;-69
2022/09/02 01:44:16;;;;;;;7.32;4.63;;;;;;;10.34;100.00;95937.50;1024822;28;20346;-69
2022/09/02 01:44:47;;;;;;;5.00;4.50;;;;;;;10.35;100.00;95940.91;1026482;28;20031;-69
2022/09/02 01:45:17;;;;;;;6.68;4.55;;;;;;;10.35;100.00;95938.28;1028467;28;20274;-70
2022/09/02 01:45:49;;;;;;;5.30;4.53;;;;;;;10.35;100.00;95935.66;1032391;28;20125;-69
2022/09/02 01:46:20;;;;;;;5.40;4.70;;;;;;;10.34;100.00;95941.97;1032251;28;20018;-69
2022/09/02 01:46:50;;;;;;;5.35;4.35;;;;;;;10.32;100.00;95933.53;1028293;28;20270;-69
2022/09/02 01:47:23;;;;;;;7.25;4.15;;;;;;;10.33;100.00;95932.53;1026262;28;20526;-70
2022/09/02 01:47:54;;;;;;;5.38;4.13;;;;;;;10.21;100.00;95918.78;1030426;28;20026;-69
2022/09/02 01:48:24;;;;;;;5.15;4.68;;;;;;;10.30;100.00;95938.28;1035857;28;20347;-70
2022/09/02 01:48:55;;;;;;;4.80;3.78;;;;;;;10.26;100.00;95940.63;1026951;28;20512;-67
2022/09/02 01:49:26;;;;;;;6.10;4.70;;;;;;;10.27;100.00;95936.94;1026845;28;20075;-69
2022/09/02 01:49:56;;;;;;;7.00;4.47;;;;;;;10.23;100.00;95932.41;1027781;28;20053;-68
2022/09/02 01:50:27;;;;;;;5.88;5.20;;;;;;;10.25;100.00;95939.00;1024179;28;20032;-69
2022/09/02 01:50:59;;;;;;;8.57;4.30;;;;;;;10.25;100.00;95935.59;1028029;28;20049;-70
2022/09/02 01:51:30;;;;;;;5.40;4.25;;;;;;;10.22;100.00;95933.47;1032469;28;20504;-71
2022/09/02 01:52:00;;;;;;;5.32;4.43;;;;;;;10.25;100.00;95938.22;1032276;28;20289;-69
2022/09/02 01:52:31;;;;;;;4.82;4.30;;;;;;;10.20;100.00;95927.72;1027578;28;20031;-70
2022/09/02 01:53:02;;;;;;;5.35;4.20;;;;;;;10.08;100.00;95907.72;1030171;28;20083;-70
2022/09/02 01:53:33;;;;;;;6.55;4.30;;;;;;;10.23;100.00;95932.41;1031959;28;20065;-69
2022/09/02 01:54:04;;;;;;;5.70;4.95;;;;;;;10.18;100.00;95921.91;1031845;28;20272;-70
2022/09/02 01:54:35;;;;;;;6.95;4.50;;;;;;;10.24;100.00;95931.41;1028104;28;20289;-69
2022/09/02 01:55:05;;;;;;;5.15;4.55;;;;;;;10.23;100.00;95938.47;1028506;28;20416;-69
2022/09/02 01:55:36;;;;;;;5.05;4.55;;;;;;;10.17;100.00;95929.00;1032039;28;20022;-69
2022/09/02 01:56:06;;;;;;;9.05;4.78;;;;;;;10.21;100.00;95934.53;1032108;28;20018;-69
2022/09/02 01:56:37;;;;;;;6.80;5.00;;;;;;;10.21;100.00;95937.16;1036012;28;20396;-70
2022/09/02 01:57:07;;;;;;;5.38;4.18;;;;;;;10.18;100.00;95929.78;1031873;28;20026;-70
2022/09/02 01:57:38;;;;;;;7.32;4.55;;;;;;;10.12;100.00;95916.63;1023914;29;20521;-70
2022/09/02 01:58:09;;;;;;;6.82;4.80;;;;;;;10.17;100.00;95929.00;1023583;29;20023;-69
2022/09/02 01:58:39;;;;;;;6.43;4.70;;;;;;;10.19;100.00;95928.72;1028098;28;20029;-69
2022/09/02 01:59:16;;;;;;;5.70;4.57;;;;;;;10.12;100.00;95927.13;1027488;28;20023;-69
2022/09/02 01:59:46;;;;;;;9.10;5.00;;;;;;;10.15;100.00;95933.69;1030576;28;20547;-70
2022/09/02 02:00:17;;;;;;;8.05;4.88;;;;;;;10.13;100.00;95926.09;1036917;28;20330;-70
2022/09/02 02:00:48;;;;;;;5.93;4.53;;;;;;;10.15;100.00;95934.47;1032910;28;20514;-70
2022/09/02 02:01:18;;;;;;;7.30;4.90;;;;;;;10.14;100.00;95930.28;1035892;28;20025;-70
2022/09/02 02:01:49;;;;;;;5.78;4.75;;;;;;;10.10;100.00;95923.97;1031917;28;20097;-70
2022/09/02 02:02:20;;;;;;;6.00;4.65;;;;;;;10.11;100.00;95930.00;1024082;28;20126;-69
2022/09/02 02:02:51;;;;;;;4.80;4.35;;;;;;;10.08;100.00;95920.03;1028196;28;20023;-70
2022/09/02 02:03:21;;;;;;;5.53;4.22;;;;;;;10.13;100.00;95928.72;1027952;28;20357;-69
2022/09/02 02:03:52;;;;;;;5.20;4.22;;;;;;;10.10;100.00;95926.59;1028546;28;20030;-70
2022/09/02 02:04:23;;;;;;;5.32;4.45;;;;;;;10.11;100.00;95930.78;1035355;28;20022;-71
2022/09/02 02:04:54;;;;;;;6.55;4.47;;;;;;;10.11;100.00;95924.78;1039302;28;20036;-70
2022/09/02 02:05:24;;;;;;;11.10;4.53;;;;;;;10.09;100.00;95925.03;1036257;28;20264;-71
2022/09/02 02:05:55;;;;;;;6.53;4.63;;;;;;;10.06;100.00;95925.53;1036022;28;20022;-69
2022/09/02 02:06:25;;;;;;;8.10;4.60;;;;;;;10.13;100.00;95930.56;1032197;28;20029;-69
2022/09/02 02:06:55;;;;;;;5.25;4.50;;;;;;;10.11;100.00;95930.00;1036019;28;20021;-69
2022/09/02 02:07:26;;;;;;;8.30;5.47;;;;;;;10.11;100.00;95930.78;1032135;28;20025;-70
2022/09/02 02:07:56;;;;;;;6.53;4.63;;;;;;;10.11;100.00;95930.78;1032184;28;20023;-68
2022/09/02 02:08:27;;;;;;;7.10;4.90;;;;;;;10.09;100.00;95932.09;1038828;28;20487;-70
2022/09/02 02:08:57;;;;;;;6.57;4.80;;;;;;;10.09;100.00;95938.16;1036116;28;20025;-69
2022/09/02 02:09:28;;;;;;;6.05;4.18;;;;;;;10.09;100.00;95937.34;1039470;28;20036;-70
2022/09/02 02:09:58;;;;;;;7.70;4.95;;;;;;;10.08;100.00;95936.53;1035768;28;20415;-70
2022/09/02 02:10:32;;;;;;;4.90;4.32;;;;;;;10.06;100.00;95930.78;1032318;28;20632;-69
2022/09/02 02:11:02;;;;;;;5.10;4.60;;;;;;;10.06;100.00;95930.78;1032157;28;20316;-68
2022/09/02 02:11:33;;;;;;;6.20;4.60;;;;;;;10.07;100.00;95934.19;1031739;28;20042;-69
2022/09/02 02:12:03;;;;;;;6.07;5.05;;;;;;;10.03;100.00;95926.06;1024038;28;20511;-69
2022/09/02 02:12:34;;;;;;;8.93;4.68;;;;;;;10.07;100.00;95934.97;1027616;28;20030;-69
2022/09/02 02:13:04;;;;;;;5.55;4.80;;;;;;;10.07;100.00;95937.59;1027945;28;20042;-70
2022/09/02 02:13:35;;;;;;;5.38;4.53;;;;;;;10.08;100.00;95939.16;1031150;28;20113;-69
2022/09/02 02:14:05;;;;;;;5.85;4.40;;;;;;;10.06;100.00;95938.66;1035864;28;20026;-68
2022/09/02 02:14:36;;;;;;;6.57;4.80;;;;;;;10.08;100.00;95936.53;1035845;28;20344;-69
2022/09/02 02:15:09;;;;;;;5.97;4.82;;;;;;;10.07;100.00;95934.97;1042026;28;20028;-70
2022/09/02 02:15:40;;;;;;;6.07;4.68;;;;;;;10.05;100.00;95926.56;1035865;28;20104;-69
2022/09/02 02:16:10;;;;;;;5.80;4.65;;;;;;;10.07;100.00;95934.19;1036056;28;20256;-70
2022/09/02 02:16:41;;;;;;;5.75;5.00;;;;;;;10.08;100.00;95936.53;1035588;28;20367;-69
2022/09/02 02:17:11;;;;;;;6.03;5.10;;;;;;;10.06;100.00;95933.41;1036301;28;20026;-69
2022/09/02 02:17:42;;;;;;;5.20;4.70;;;;;;;10.08;100.00;95935.75;1031971;28;20335;-69
2022/09/02 02:18:12;;;;;;;5.65;4.97;;;;;;;10.06;100.00;95933.41;1031864;28;20057;-69
2022/09/02 02:18:43;;;;;;;5.65;5.05;;;;;;;10.06;100.00;95933.41;1031168;28;20072;-69
2022/09/02 02:19:13;;;;;;;7.35;4.90;;;;;;;10.06;100.00;95933.41;1035391;28;20033;-70
2022/09/02 02:19:44;;;;;;;6.80;5.15;;;;;;;10.05;100.00;95934.44;1035941;28;20569;-69
2022/09/02 02:20:15;;;;;;;5.63;4.78;;;;;;;10.04;100.00;95929.47;1036075;28;20029;-69
2022/09/02 02:20:45;;;;;;;8.93;5.55;;;;;;;10.03;100.00;95933.91;1039804;28;20017;-69
2022/09/02 02:21:16;;;;;;;5.97;4.65;;;;;;;9.99;100.00;95926.78;1039835;28;20279;-69
2022/09/02 02:21:46;;;;;;;5.07;4.57;;;;;;;10.05;100.00;95931.03;1039331;28;20463;-70
2022/09/02 02:22:17;;;;;;;5.40;4.90;;;;;;;10.03;100.00;95930.50;1031897;28;20082;-69
2022/09/02 02:22:47;;;;;;;5.85;4.45;;;;;;;9.99;100.00;95924.94;1031924;28;20072;-69
2022/09/02 02:23:18;;;;;;;6.63;5.15;;;;;;;10.01;100.00;95930.75;1027679;28;20078;-69
2022/09/02 02:23:48;;;;;;;9.20;5.82;;;;;;;10.03;100.00;95928.66;1027602;28;20572;-68
2022/09/02 02:24:19;;;;;;;8.82;5.35;;;;;;;9.97;100.00;95924.44;1027990;28;20126;-69
2022/09/02 02:24:49;;;;;;;5.85;4.78;;;;;;;9.96;100.00;95916.81;1031905;28;20109;-69
2022/09/02 02:25:20;;;;;;;6.57;4.97;;;;;;;10.05;100.00;95923.94;1029616;28;20018;-69
2022/09/02 02:25:50;;;;;;;6.75;5.50;;;;;;;10.04;100.00;95932.06;1032062;28;20422;-68
2022/09/02 02:26:21;;;;;;;6.05;4.72;;;;;;;10.02;100.00;95927.06;1032095;28;20034;-70
2022/09/02 02:26:51;;;;;;;5.63;5.13;;;;;;;9.96;100.00;95922.06;1043942;28;20040;-71